sensor_id;sensor_type;location;lat;lon;timestamp;pressure;altitude;pressure_sealevel;temperature
15062;BMP180;7630;50.306;8.566;2023-03-01T00:02:58;98847.00;;;1.70
15062;BMP180;7630;50.306;8.566;2023-03-01T00:06:59;98847.00;;;1.40
15062;BMP180;7630;50.306;8.566;2023-03-01T00:11:03;98857.00;;;1.20
15062;BMP180;7630;50.306;8.566;2023-03-01T00:15:05;98867.00;;;1.50
15062;BMP180;7630;50.306;8.566;2023-03-01T00:19:08;98857.00;;;1.80
15062;BMP180;7630;50.306;8.566;2023-03-01T00:23:10;98857.00;;;1.70
15062;BMP180;7630;50.306;8.566;2023-03-01T00:27:11;98853.00;;;1.60
15062;BMP180;7630;50.306;8.566;2023-03-01T00:31:14;98854.00;;;1.80
15062;BMP180;7630;50.306;8.566;2023-03-01T00:35:16;98841.00;;;1.30
15062;BMP180;7630;50.306;8.566;2023-03-01T00:39:17;98845.00;;;1.50
15062;BMP180;7630;50.306;8.566;2023-03-01T00:43:18;98830.00;;;1.50
15062;BMP180;7630;50.306;8.566;2023-03-01T00:47:19;98826.00;;;1.40
15062;BMP180;7630;50.306;8.566;2023-03-01T00:51:24;98822.00;;;1.40
15062;BMP180;7630;50.306;8.566;2023-03-01T00:55:26;98827.00;;;1.30
15062;BMP180;7630;50.306;8.566;2023-03-01T00:59:27;98821.00;;;1.40
15062;BMP180;7630;50.306;8.566;2023-03-01T01:03:28;98825.00;;;1.10
15062;BMP180;7630;50.306;8.566;2023-03-01T01:07:29;98815.00;;;1.40
15062;BMP180;7630;50.306;8.566;2023-03-01T01:11:30;98806.00;;;1.20
15062;BMP180;7630;50.306;8.566;2023-03-01T01:15:35;98801.00;;;1.30
15062;BMP180;7630;50.306;8.566;2023-03-01T01:19:36;98793.00;;;1.40
15062;BMP180;7630;50.306;8.566;2023-03-01T01:23:39;98797.00;;;1.00
15062;BMP180;7630;50.306;8.566;2023-03-01T01:27:40;98788.00;;;1.30
15062;BMP180;7630;50.306;8.566;2023-03-01T01:31:42;98786.00;;;0.80
15062;BMP180;7630;50.306;8.566;2023-03-01T01:35:45;98781.00;;;1.10
15062;BMP180;7630;50.306;8.566;2023-03-01T01:39:46;98766.00;;;1.40
15062;BMP180;7630;50.306;8.566;2023-03-01T01:44:08;98765.00;;;1.50
15062;BMP180;7630;50.306;8.566;2023-03-01T01:47:55;98781.00;;;1.30
15062;BMP180;7630;50.306;8.566;2023-03-01T01:52:04;98782.00;;;1.00
15062;BMP180;7630;50.306;8.566;2023-03-01T01:56:02;98784.00;;;1.00
15062;BMP180;7630;50.306;8.566;2023-03-01T02:00:17;98779.00;;;1.50
15062;BMP180;7630;50.306;8.566;2023-03-01T02:04:15;98787.00;;;1.10
15062;BMP180;7630;50.306;8.566;2023-03-01T02:08:18;98786.00;;;1.60
15062;BMP180;7630;50.306;8.566;2023-03-01T02:12:23;98787.00;;;1.90
15062;BMP180;7630;50.306;8.566;2023-03-01T02:16:25;98792.00;;;1.90
15062;BMP180;7630;50.306;8.566;2023-03-01T02:20:39;98775.00;;;1.80
15062;BMP180;7630;50.306;8.566;2023-03-01T02:28:59;98788.00;;;0.60
15062;BMP180;7630;50.306;8.566;2023-03-01T02:33:02;98765.00;;;1.60
15062;BMP180;7630;50.306;8.566;2023-03-01T02:37:08;98753.00;;;1.40
15062;BMP180;7630;50.306;8.566;2023-03-01T02:41:11;98755.00;;;1.80
15062;BMP180;7630;50.306;8.566;2023-03-01T02:45:14;98742.00;;;1.40
15062;BMP180;7630;50.306;8.566;2023-03-01T02:49:18;98730.00;;;1.30
15062;BMP180;7630;50.306;8.566;2023-03-01T02:53:30;98733.00;;;1.50
15062;BMP180;7630;50.306;8.566;2023-03-01T02:57:32;98610.00;;;1.70
15062;BMP180;7630;50.306;8.566;2023-03-01T03:01:33;98730.00;;;1.00
15062;BMP180;7630;50.306;8.566;2023-03-01T03:05:37;98730.00;;;0.70
15062;BMP180;7630;50.306;8.566;2023-03-01T03:09:38;98724.00;;;1.20
15062;BMP180;7630;50.306;8.566;2023-03-01T03:13:39;98720.00;;;1.70
15062;BMP180;7630;50.306;8.566;2023-03-01T03:17:43;98715.00;;;1.50
15062;BMP180;7630;50.306;8.566;2023-03-01T03:21:46;98713.00;;;1.30
15062;BMP180;7630;50.306;8.566;2023-03-01T03:25:48;98707.00;;;1.50
15062;BMP180;7630;50.306;8.566;2023-03-01T03:29:49;98695.00;;;1.50
15062;BMP180;7630;50.306;8.566;2023-03-01T03:33:51;98688.00;;;1.40
15062;BMP180;7630;50.306;8.566;2023-03-01T03:37:52;98683.00;;;0.80
15062;BMP180;7630;50.306;8.566;2023-03-01T03:42:06;98687.00;;;1.40
15062;BMP180;7630;50.306;8.566;2023-03-01T03:46:08;98682.00;;;1.00
15062;BMP180;7630;50.306;8.566;2023-03-01T03:50:10;98683.00;;;1.10
15062;BMP180;7630;50.306;8.566;2023-03-01T03:54:11;98693.00;;;1.10
15062;BMP180;7630;50.306;8.566;2023-03-01T03:58:13;98708.00;;;0.70
15062;BMP180;7630;50.306;8.566;2023-03-01T04:02:14;98681.00;;;-0.20
15062;BMP180;7630;50.306;8.566;2023-03-01T04:06:16;98677.00;;;-1.10
15062;BMP180;7630;50.306;8.566;2023-03-01T04:10:18;98682.00;;;-0.90
15062;BMP180;7630;50.306;8.566;2023-03-01T04:14:19;98680.00;;;0.80
15062;BMP180;7630;50.306;8.566;2023-03-01T04:18:22;98691.00;;;1.40
15062;BMP180;7630;50.306;8.566;2023-03-01T04:22:23;98684.00;;;1.00
15062;BMP180;7630;50.306;8.566;2023-03-01T04:26:26;98685.00;;;0.80
15062;BMP180;7630;50.306;8.566;2023-03-01T04:30:28;98688.00;;;1.00
15062;BMP180;7630;50.306;8.566;2023-03-01T04:34:29;98681.00;;;1.30
15062;BMP180;7630;50.306;8.566;2023-03-01T04:38:30;98693.00;;;1.20
15062;BMP180;7630;50.306;8.566;2023-03-01T04:42:31;98673.00;;;0.40
15062;BMP180;7630;50.306;8.566;2023-03-01T04:46:32;98669.00;;;0.90
15062;BMP180;7630;50.306;8.566;2023-03-01T04:50:34;98671.00;;;0.70
15062;BMP180;7630;50.306;8.566;2023-03-01T04:54:36;98670.00;;;0.80
15062;BMP180;7630;50.306;8.566;2023-03-01T04:58:37;98670.00;;;0.70
15062;BMP180;7630;50.306;8.566;2023-03-01T05:02:38;98695.00;;;0.00
15062;BMP180;7630;50.306;8.566;2023-03-01T05:06:40;98661.00;;;-0.40
15062;BMP180;7630;50.306;8.566;2023-03-01T05:10:41;98662.00;;;0.30
15062;BMP180;7630;50.306;8.566;2023-03-01T05:14:43;98660.00;;;0.90
15062;BMP180;7630;50.306;8.566;2023-03-01T05:18:44;98661.00;;;0.90
15062;BMP180;7630;50.306;8.566;2023-03-01T05:22:46;98682.00;;;1.10
15062;BMP180;7630;50.306;8.566;2023-03-01T05:26:48;98665.00;;;0.90
15062;BMP180;7630;50.306;8.566;2023-03-01T05:30:49;98656.00;;;-0.20
15062;BMP180;7630;50.306;8.566;2023-03-01T05:34:52;98661.00;;;-1.10
15062;BMP180;7630;50.306;8.566;2023-03-01T05:38:55;98660.00;;;-0.90
15062;BMP180;7630;50.306;8.566;2023-03-01T05:42:56;98654.00;;;-1.10
15062;BMP180;7630;50.306;8.566;2023-03-01T05:46:58;98649.00;;;0.10
15062;BMP180;7630;50.306;8.566;2023-03-01T05:51:00;98673.00;;;1.40
15062;BMP180;7630;50.306;8.566;2023-03-01T05:55:01;98660.00;;;1.60
15062;BMP180;7630;50.306;8.566;2023-03-01T05:59:04;98644.00;;;1.70
15062;BMP180;7630;50.306;8.566;2023-03-01T06:03:05;98673.00;;;1.40
15062;BMP180;7630;50.306;8.566;2023-03-01T06:07:06;98654.00;;;0.70
15062;BMP180;7630;50.306;8.566;2023-03-01T06:11:07;98656.00;;;1.40
15062;BMP180;7630;50.306;8.566;2023-03-01T06:15:11;98648.00;;;0.50
15062;BMP180;7630;50.306;8.566;2023-03-01T06:19:12;98647.00;;;0.10
15062;BMP180;7630;50.306;8.566;2023-03-01T06:23:13;98658.00;;;0.90
15062;BMP180;7630;50.306;8.566;2023-03-01T06:27:15;98666.00;;;0.10
15062;BMP180;7630;50.306;8.566;2023-03-01T06:31:16;98657.00;;;-0.90
15062;BMP180;7630;50.306;8.566;2023-03-01T06:35:19;98659.00;;;0.30
15062;BMP180;7630;50.306;8.566;2023-03-01T06:39:20;98656.00;;;1.50
15062;BMP180;7630;50.306;8.566;2023-03-01T06:43:22;98652.00;;;0.90
15062;BMP180;7630;50.306;8.566;2023-03-01T06:47:24;98654.00;;;1.30
15062;BMP180;7630;50.306;8.566;2023-03-01T06:51:25;98656.00;;;1.20
15062;BMP180;7630;50.306;8.566;2023-03-01T06:55:27;98640.00;;;0.10
15062;BMP180;7630;50.306;8.566;2023-03-01T06:59:28;98478.00;;;-0.50
15062;BMP180;7630;50.306;8.566;2023-03-01T07:03:29;98632.00;;;0.10
15062;BMP180;7630;50.306;8.566;2023-03-01T07:07:30;98642.00;;;-0.80
15062;BMP180;7630;50.306;8.566;2023-03-01T07:11:32;98640.00;;;-0.10
15062;BMP180;7630;50.306;8.566;2023-03-01T07:15:33;98646.00;;;-0.40
15062;BMP180;7630;50.306;8.566;2023-03-01T07:19:34;98631.00;;;-1.20
15062;BMP180;7630;50.306;8.566;2023-03-01T07:23:35;98633.00;;;-1.30
15062;BMP180;7630;50.306;8.566;2023-03-01T07:27:36;98641.00;;;-1.10
15062;BMP180;7630;50.306;8.566;2023-03-01T07:31:37;98614.00;;;-0.70
15062;BMP180;7630;50.306;8.566;2023-03-01T07:35:39;98631.00;;;-1.00
15062;BMP180;7630;50.306;8.566;2023-03-01T07:39:40;98629.00;;;-1.60
15062;BMP180;7630;50.306;8.566;2023-03-01T07:43:41;98627.00;;;-1.40
15062;BMP180;7630;50.306;8.566;2023-03-01T07:47:42;98642.00;;;-1.50
15062;BMP180;7630;50.306;8.566;2023-03-01T07:51:43;98633.00;;;-1.20
15062;BMP180;7630;50.306;8.566;2023-03-01T07:55:44;98637.00;;;-1.60
15062;BMP180;7630;50.306;8.566;2023-03-01T07:59:46;98622.00;;;-1.40
15062;BMP180;7630;50.306;8.566;2023-03-01T08:03:47;98622.00;;;-2.10
15062;BMP180;7630;50.306;8.566;2023-03-01T08:07:48;98635.00;;;-1.20
15062;BMP180;7630;50.306;8.566;2023-03-01T08:11:50;98621.00;;;-0.90
15062;BMP180;7630;50.306;8.566;2023-03-01T08:15:52;98629.00;;;-0.80
15062;BMP180;7630;50.306;8.566;2023-03-01T08:19:53;98637.00;;;-0.40
15062;BMP180;7630;50.306;8.566;2023-03-01T08:23:54;98629.00;;;-1.10
15062;BMP180;7630;50.306;8.566;2023-03-01T08:27:55;98617.00;;;-0.80
15062;BMP180;7630;50.306;8.566;2023-03-01T08:31:56;98624.00;;;-0.90
15062;BMP180;7630;50.306;8.566;2023-03-01T08:36:06;98619.00;;;-0.20
15062;BMP180;7630;50.306;8.566;2023-03-01T08:40:08;98629.00;;;-0.80
15062;BMP180;7630;50.306;8.566;2023-03-01T08:44:12;98626.00;;;-0.70
15062;BMP180;7630;50.306;8.566;2023-03-01T08:48:14;98608.00;;;-0.60
15062;BMP180;7630;50.306;8.566;2023-03-01T08:52:15;98603.00;;;-0.60
15062;BMP180;7630;50.306;8.566;2023-03-01T08:56:17;98598.00;;;0.00
15062;BMP180;7630;50.306;8.566;2023-03-01T09:00:19;98594.00;;;-0.20
15062;BMP180;7630;50.306;8.566;2023-03-01T09:04:21;98587.00;;;0.00
15062;BMP180;7630;50.306;8.566;2023-03-01T09:08:22;98595.00;;;0.20
15062;BMP180;7630;50.306;8.566;2023-03-01T09:12:23;98596.00;;;0.40
15062;BMP180;7630;50.306;8.566;2023-03-01T09:16:25;98591.00;;;0.50
15062;BMP180;7630;50.306;8.566;2023-03-01T09:20:27;98588.00;;;0.30
15062;BMP180;7630;50.306;8.566;2023-03-01T09:24:28;98600.00;;;0.70
15062;BMP180;7630;50.306;8.566;2023-03-01T09:28:29;98586.00;;;0.50
15062;BMP180;7630;50.306;8.566;2023-03-01T09:32:30;98579.00;;;1.30
15062;BMP180;7630;50.306;8.566;2023-03-01T09:36:32;98575.00;;;1.20
15062;BMP180;7630;50.306;8.566;2023-03-01T09:40:34;98563.00;;;1.10
15062;BMP180;7630;50.306;8.566;2023-03-01T09:44:40;98559.00;;;1.30
15062;BMP180;7630;50.306;8.566;2023-03-01T09:48:59;98552.00;;;1.30
15062;BMP180;7630;50.306;8.566;2023-03-01T09:53:06;98568.00;;;1.30
15062;BMP180;7630;50.306;8.566;2023-03-01T09:57:20;98568.00;;;1.30
15062;BMP180;7630;50.306;8.566;2023-03-01T10:01:32;98558.00;;;1.80
15062;BMP180;7630;50.306;8.566;2023-03-01T10:09:52;98565.00;;;1.70
15062;BMP180;7630;50.306;8.566;2023-03-01T10:14:05;98552.00;;;1.90
15062;BMP180;7630;50.306;8.566;2023-03-01T10:18:19;98560.00;;;2.50
15062;BMP180;7630;50.306;8.566;2023-03-01T10:22:27;98552.00;;;1.80
15062;BMP180;7630;50.306;8.566;2023-03-01T10:30:37;98541.00;;;2.60
15062;BMP180;7630;50.306;8.566;2023-03-01T10:34:40;98544.00;;;2.20
15062;BMP180;7630;50.306;8.566;2023-03-01T10:38:53;98539.00;;;2.60
15062;BMP180;7630;50.306;8.566;2023-03-01T10:42:57;98534.00;;;2.90
15062;BMP180;7630;50.306;8.566;2023-03-01T10:47:00;98538.00;;;2.60
15062;BMP180;7630;50.306;8.566;2023-03-01T10:51:06;98529.00;;;2.90
15062;BMP180;7630;50.306;8.566;2023-03-01T10:59:36;98518.00;;;2.50
15062;BMP180;7630;50.306;8.566;2023-03-01T11:03:39;98522.00;;;3.20
15062;BMP180;7630;50.306;8.566;2023-03-01T11:07:52;98507.00;;;2.90
15062;BMP180;7630;50.306;8.566;2023-03-01T11:11:55;98515.00;;;3.40
15062;BMP180;7630;50.306;8.566;2023-03-01T11:16:02;98495.00;;;3.60
15062;BMP180;7630;50.306;8.566;2023-03-01T11:24:16;98480.00;;;3.30
15062;BMP180;7630;50.306;8.566;2023-03-01T11:28:19;98469.00;;;3.30
15062;BMP180;7630;50.306;8.566;2023-03-01T11:32:23;98458.00;;;3.50
15062;BMP180;7630;50.306;8.566;2023-03-01T11:36:44;98474.00;;;4.10
15062;BMP180;7630;50.306;8.566;2023-03-01T11:41:05;98474.00;;;3.50
15062;BMP180;7630;50.306;8.566;2023-03-01T11:45:11;98471.00;;;3.80
15062;BMP180;7630;50.306;8.566;2023-03-01T12:06:41;98414.00;;;4.10
15062;BMP180;7630;50.306;8.566;2023-03-01T12:40:45;98382.00;;;4.80
15062;BMP180;7630;50.306;8.566;2023-03-01T12:49:31;98381.00;;;4.70
15062;BMP180;7630;50.306;8.566;2023-03-01T12:53:42;98381.00;;;5.10
15062;BMP180;7630;50.306;8.566;2023-03-01T12:57:50;98387.00;;;5.10
15062;BMP180;7630;50.306;8.566;2023-03-01T13:02:04;98388.00;;;5.50
15062;BMP180;7630;50.306;8.566;2023-03-01T13:06:15;98370.00;;;5.40
15062;BMP180;7630;50.306;8.566;2023-03-01T13:18:28;98359.00;;;5.20
15062;BMP180;7630;50.306;8.566;2023-03-01T13:22:32;98347.00;;;5.30
15062;BMP180;7630;50.306;8.566;2023-03-01T13:27:08;98358.00;;;5.30
15062;BMP180;7630;50.306;8.566;2023-03-01T13:30:41;98368.00;;;5.30
15062;BMP180;7630;50.306;8.566;2023-03-01T13:34:49;98347.00;;;5.80
15062;BMP180;7630;50.306;8.566;2023-03-01T13:43:26;98338.00;;;6.30
15062;BMP180;7630;50.306;8.566;2023-03-01T13:51:15;98314.00;;;5.40
15062;BMP180;7630;50.306;8.566;2023-03-01T13:59:23;98186.00;;;5.80
15062;BMP180;7630;50.306;8.566;2023-03-01T14:03:27;98324.00;;;5.90
15062;BMP180;7630;50.306;8.566;2023-03-01T14:07:29;98318.00;;;6.30
15062;BMP180;7630;50.306;8.566;2023-03-01T14:12:06;98313.00;;;5.80
15062;BMP180;7630;50.306;8.566;2023-03-01T14:16:18;98316.00;;;5.50
15062;BMP180;7630;50.306;8.566;2023-03-01T14:20:24;98315.00;;;6.00
15062;BMP180;7630;50.306;8.566;2023-03-01T14:24:26;98303.00;;;5.70
15062;BMP180;7630;50.306;8.566;2023-03-01T14:28:30;98302.00;;;5.70
15062;BMP180;7630;50.306;8.566;2023-03-01T14:32:34;98299.00;;;5.50
15062;BMP180;7630;50.306;8.566;2023-03-01T14:36:36;98303.00;;;5.80
15062;BMP180;7630;50.306;8.566;2023-03-01T14:40:38;98301.00;;;5.60
15062;BMP180;7630;50.306;8.566;2023-03-01T14:44:46;98285.00;;;5.90
15062;BMP180;7630;50.306;8.566;2023-03-01T14:48:44;98289.00;;;5.90
15062;BMP180;7630;50.306;8.566;2023-03-01T14:52:47;98290.00;;;5.80
15062;BMP180;7630;50.306;8.566;2023-03-01T14:56:51;98286.00;;;6.00
15062;BMP180;7630;50.306;8.566;2023-03-01T15:00:58;98279.00;;;5.50
15062;BMP180;7630;50.306;8.566;2023-03-01T15:05:02;98299.00;;;5.50
15062;BMP180;7630;50.306;8.566;2023-03-01T15:09:16;98280.00;;;5.60
15062;BMP180;7630;50.306;8.566;2023-03-01T15:13:24;98293.00;;;5.70
15062;BMP180;7630;50.306;8.566;2023-03-01T15:17:37;98282.00;;;5.50
15062;BMP180;7630;50.306;8.566;2023-03-01T15:21:40;98288.00;;;5.60
15062;BMP180;7630;50.306;8.566;2023-03-01T15:25:44;98285.00;;;5.40
15062;BMP180;7630;50.306;8.566;2023-03-01T15:29:59;98287.00;;;5.70
15062;BMP180;7630;50.306;8.566;2023-03-01T15:34:32;98283.00;;;5.60
15062;BMP180;7630;50.306;8.566;2023-03-01T15:38:31;98270.00;;;5.50
15062;BMP180;7630;50.306;8.566;2023-03-01T15:42:36;98273.00;;;4.90
15062;BMP180;7630;50.306;8.566;2023-03-01T15:46:37;98258.00;;;5.10
15062;BMP180;7630;50.306;8.566;2023-03-01T15:50:39;98285.00;;;5.40
15062;BMP180;7630;50.306;8.566;2023-03-01T15:54:41;98296.00;;;5.10
15062;BMP180;7630;50.306;8.566;2023-03-01T15:58:43;98320.00;;;5.40
15062;BMP180;7630;50.306;8.566;2023-03-01T16:02:44;98301.00;;;4.90
15062;BMP180;7630;50.306;8.566;2023-03-01T16:06:47;98307.00;;;5.10
15062;BMP180;7630;50.306;8.566;2023-03-01T16:10:50;98305.00;;;4.90
15062;BMP180;7630;50.306;8.566;2023-03-01T16:14:53;98310.00;;;5.00
15062;BMP180;7630;50.306;8.566;2023-03-01T16:18:55;98312.00;;;4.80
15062;BMP180;7630;50.306;8.566;2023-03-01T16:23:03;98315.00;;;4.70
15062;BMP180;7630;50.306;8.566;2023-03-01T16:27:05;98312.00;;;5.00
15062;BMP180;7630;50.306;8.566;2023-03-01T16:31:06;98302.00;;;4.80
15062;BMP180;7630;50.306;8.566;2023-03-01T16:35:10;98297.00;;;4.40
15062;BMP180;7630;50.306;8.566;2023-03-01T16:39:12;98304.00;;;4.50
15062;BMP180;7630;50.306;8.566;2023-03-01T16:43:13;98294.00;;;4.60
15062;BMP180;7630;50.306;8.566;2023-03-01T16:47:14;98296.00;;;4.60
15062;BMP180;7630;50.306;8.566;2023-03-01T16:51:16;98294.00;;;4.40
15062;BMP180;7630;50.306;8.566;2023-03-01T16:55:17;98303.00;;;4.50
15062;BMP180;7630;50.306;8.566;2023-03-01T16:59:19;98289.00;;;4.20
15062;BMP180;7630;50.306;8.566;2023-03-01T17:03:21;98305.00;;;4.10
15062;BMP180;7630;50.306;8.566;2023-03-01T17:07:23;98302.00;;;3.90
15062;BMP180;7630;50.306;8.566;2023-03-01T17:11:24;98311.00;;;4.00
15062;BMP180;7630;50.306;8.566;2023-03-01T17:15:26;98307.00;;;3.80
15062;BMP180;7630;50.306;8.566;2023-03-01T17:19:27;98333.00;;;3.70
15062;BMP180;7630;50.306;8.566;2023-03-01T17:23:29;98322.00;;;4.00
15062;BMP180;7630;50.306;8.566;2023-03-01T17:27:31;98321.00;;;3.90
15062;BMP180;7630;50.306;8.566;2023-03-01T17:31:34;98304.00;;;3.60
15062;BMP180;7630;50.306;8.566;2023-03-01T17:35:35;98311.00;;;3.60
15062;BMP180;7630;50.306;8.566;2023-03-01T17:39:38;98300.00;;;3.60
15062;BMP180;7630;50.306;8.566;2023-03-01T17:43:39;98301.00;;;3.30
15062;BMP180;7630;50.306;8.566;2023-03-01T17:47:40;98281.00;;;3.20
15062;BMP180;7630;50.306;8.566;2023-03-01T17:51:42;98296.00;;;3.20
15062;BMP180;7630;50.306;8.566;2023-03-01T17:55:44;98314.00;;;2.90
15062;BMP180;7630;50.306;8.566;2023-03-01T17:59:46;98321.00;;;3.00
15062;BMP180;7630;50.306;8.566;2023-03-01T18:03:49;98332.00;;;2.90
15062;BMP180;7630;50.306;8.566;2023-03-01T18:07:51;98326.00;;;2.90
15062;BMP180;7630;50.306;8.566;2023-03-01T18:11:52;98336.00;;;2.80
15062;BMP180;7630;50.306;8.566;2023-03-01T18:15:54;98330.00;;;2.80
15062;BMP180;7630;50.306;8.566;2023-03-01T18:19:58;98335.00;;;2.90
15062;BMP180;7630;50.306;8.566;2023-03-01T18:23:59;98329.00;;;2.80
15062;BMP180;7630;50.306;8.566;2023-03-01T18:28:01;98324.00;;;3.00
15062;BMP180;7630;50.306;8.566;2023-03-01T18:32:04;98333.00;;;2.40
15062;BMP180;7630;50.306;8.566;2023-03-01T18:36:14;98319.00;;;2.70
15062;BMP180;7630;50.306;8.566;2023-03-01T18:40:12;98320.00;;;2.40
15062;BMP180;7630;50.306;8.566;2023-03-01T18:44:15;98312.00;;;2.20
15062;BMP180;7630;50.306;8.566;2023-03-01T18:48:16;98300.00;;;2.60
15062;BMP180;7630;50.306;8.566;2023-03-01T18:52:18;98313.00;;;2.30
15062;BMP180;7630;50.306;8.566;2023-03-01T18:56:19;98307.00;;;2.30
15062;BMP180;7630;50.306;8.566;2023-03-01T19:00:21;98291.00;;;2.40
15062;BMP180;7630;50.306;8.566;2023-03-01T19:04:23;98278.00;;;2.10
15062;BMP180;7630;50.306;8.566;2023-03-01T19:08:24;98275.00;;;1.80
15062;BMP180;7630;50.306;8.566;2023-03-01T19:12:26;98287.00;;;1.80
15062;BMP180;7630;50.306;8.566;2023-03-01T19:16:30;98284.00;;;1.70
15062;BMP180;7630;50.306;8.566;2023-03-01T19:20:32;98284.00;;;1.80
15062;BMP180;7630;50.306;8.566;2023-03-01T19:24:34;98313.00;;;1.70
15062;BMP180;7630;50.306;8.566;2023-03-01T19:28:36;98306.00;;;1.90
15062;BMP180;7630;50.306;8.566;2023-03-01T19:32:40;98300.00;;;1.60
15062;BMP180;7630;50.306;8.566;2023-03-01T19:36:42;98301.00;;;1.70
15062;BMP180;7630;50.306;8.566;2023-03-01T19:40:44;98292.00;;;1.70
15062;BMP180;7630;50.306;8.566;2023-03-01T19:44:45;98292.00;;;1.40
15062;BMP180;7630;50.306;8.566;2023-03-01T19:48:46;98287.00;;;1.80
15062;BMP180;7630;50.306;8.566;2023-03-01T19:52:50;98295.00;;;1.70
15062;BMP180;7630;50.306;8.566;2023-03-01T19:56:51;98302.00;;;1.90
15062;BMP180;7630;50.306;8.566;2023-03-01T20:00:53;98293.00;;;1.90
15062;BMP180;7630;50.306;8.566;2023-03-01T20:04:58;98308.00;;;2.10
15062;BMP180;7630;50.306;8.566;2023-03-01T20:09:02;98312.00;;;2.40
15062;BMP180;7630;50.306;8.566;2023-03-01T20:13:05;98309.00;;;2.20
15062;BMP180;7630;50.306;8.566;2023-03-01T20:17:07;98315.00;;;2.40
15062;BMP180;7630;50.306;8.566;2023-03-01T20:21:08;98309.00;;;2.00
15062;BMP180;7630;50.306;8.566;2023-03-01T20:25:11;98307.00;;;2.10
15062;BMP180;7630;50.306;8.566;2023-03-01T20:29:13;98319.00;;;2.30
15062;BMP180;7630;50.306;8.566;2023-03-01T20:33:14;98301.00;;;1.90
15062;BMP180;7630;50.306;8.566;2023-03-01T20:37:15;98332.00;;;1.60
15062;BMP180;7630;50.306;8.566;2023-03-01T20:41:17;98319.00;;;1.50
15062;BMP180;7630;50.306;8.566;2023-03-01T20:45:20;98305.00;;;1.40
15062;BMP180;7630;50.306;8.566;2023-03-01T20:49:22;98311.00;;;1.50
15062;BMP180;7630;50.306;8.566;2023-03-01T20:53:24;98312.00;;;2.10
15062;BMP180;7630;50.306;8.566;2023-03-01T20:57:25;98315.00;;;2.60
15062;BMP180;7630;50.306;8.566;2023-03-01T21:01:26;98309.00;;;3.70
15062;BMP180;7630;50.306;8.566;2023-03-01T21:05:27;98311.00;;;4.70
15062;BMP180;7630;50.306;8.566;2023-03-01T21:09:28;98316.00;;;4.00
15062;BMP180;7630;50.306;8.566;2023-03-01T21:13:30;98316.00;;;4.40
15062;BMP180;7630;50.306;8.566;2023-03-01T21:17:32;98316.00;;;4.40
15062;BMP180;7630;50.306;8.566;2023-03-01T21:21:34;98308.00;;;4.10
15062;BMP180;7630;50.306;8.566;2023-03-01T21:25:35;98315.00;;;4.00
15062;BMP180;7630;50.306;8.566;2023-03-01T21:29:38;98317.00;;;3.90
15062;BMP180;7630;50.306;8.566;2023-03-01T21:33:45;98312.00;;;2.40
15062;BMP180;7630;50.306;8.566;2023-03-01T21:37:47;98311.00;;;1.70
15062;BMP180;7630;50.306;8.566;2023-03-01T21:41:49;98303.00;;;2.00
15062;BMP180;7630;50.306;8.566;2023-03-01T21:45:50;98305.00;;;1.70
15062;BMP180;7630;50.306;8.566;2023-03-01T21:49:51;98305.00;;;2.50
15062;BMP180;7630;50.306;8.566;2023-03-01T21:53:53;98303.00;;;2.80
15062;BMP180;7630;50.306;8.566;2023-03-01T21:57:56;98300.00;;;3.60
15062;BMP180;7630;50.306;8.566;2023-03-01T22:01:58;98298.00;;;3.60
15062;BMP180;7630;50.306;8.566;2023-03-01T22:06:00;98295.00;;;4.10
15062;BMP180;7630;50.306;8.566;2023-03-01T22:10:02;98301.00;;;3.90
15062;BMP180;7630;50.306;8.566;2023-03-01T22:14:03;98294.00;;;4.30
15062;BMP180;7630;50.306;8.566;2023-03-01T22:18:05;98304.00;;;4.00
15062;BMP180;7630;50.306;8.566;2023-03-01T22:22:07;98307.00;;;4.50
15062;BMP180;7630;50.306;8.566;2023-03-01T22:30:22;98304.00;;;3.00
15062;BMP180;7630;50.306;8.566;2023-03-01T22:34:23;98293.00;;;3.20
15062;BMP180;7630;50.306;8.566;2023-03-01T22:38:25;98293.00;;;4.00
15062;BMP180;7630;50.306;8.566;2023-03-01T22:42:26;98298.00;;;4.10
15062;BMP180;7630;50.306;8.566;2023-03-01T22:46:29;98284.00;;;3.80
15062;BMP180;7630;50.306;8.566;2023-03-01T22:50:31;98281.00;;;4.10
15062;BMP180;7630;50.306;8.566;2023-03-01T22:54:32;98296.00;;;4.10
15062;BMP180;7630;50.306;8.566;2023-03-01T22:58:33;98282.00;;;3.30
15062;BMP180;7630;50.306;8.566;2023-03-01T23:02:34;98285.00;;;3.60
15062;BMP180;7630;50.306;8.566;2023-03-01T23:06:35;98285.00;;;2.90
15062;BMP180;7630;50.306;8.566;2023-03-01T23:10:39;98270.00;;;2.40
15062;BMP180;7630;50.306;8.566;2023-03-01T23:14:42;98269.00;;;3.10
15062;BMP180;7630;50.306;8.566;2023-03-01T23:18:43;98274.00;;;2.50
15062;BMP180;7630;50.306;8.566;2023-03-01T23:22:45;98266.00;;;3.00
15062;BMP180;7630;50.306;8.566;2023-03-01T23:26:47;98271.00;;;3.10
15062;BMP180;7630;50.306;8.566;2023-03-01T23:30:56;98256.00;;;2.60
15062;BMP180;7630;50.306;8.566;2023-03-01T23:34:57;98256.00;;;1.90
15062;BMP180;7630;50.306;8.566;2023-03-01T23:39:02;98251.00;;;1.30
15062;BMP180;7630;50.306;8.566;2023-03-01T23:43:04;98246.00;;;1.90
15062;BMP180;7630;50.306;8.566;2023-03-01T23:47:05;98250.00;;;3.10
15062;BMP180;7630;50.306;8.566;2023-03-01T23:51:06;98256.00;;;4.00
15062;BMP180;7630;50.306;8.566;2023-03-01T23:55:09;98256.00;;;2.40
15062;BMP180;7630;50.306;8.566;2023-03-01T23:59:14;98261.00;;;2.80
